Terminal Aerodrome Forecast
Issued by NWS Chicago, IL

Home | Current Version | Previous Version | Text Only | Print | Product List | Glossary On
Versions: 1 2 3 4 5 6 7 8 9 10 11 12 13 14 15 16 17 18 19 20 21 22 23 24 25 26 27
272
FTUS43 KLOT 181903 AAA
TAFRFD
TAF AMD
KRFD 181903Z 1819/1918 26010G16KT P6SM FEW015 BKN250
     FM190000 22011KT P6SM SCT020 BKN250 WS020/27045KT
     FM190900 26008KT P6SM BKN250=

USA.gov is the U.S. government's official web portal to all federal, state and local government web resources and services.